Time;durP1;ratioP1;P1;durP2;ratioP2;P2;SDS_P1;SDS_P2;PMS_P1;PMS_P2;Temp;Humidity;BMP_temperature;BMP_pressure;BME280_temperature;BME280_humidity;BME280_pressure;Samples;Min_cycle;Max_cycle;Signal;HPM_P1;HPM_P2
2021/02/19 00:03:47;;;;;;;0.60;0.60;;;;;;;7.36;73.44;96822.63;299395;220;63020;-56
2021/02/19 00:08:48;;;;;;;0.60;0.60;;;;;;;7.33;73.09;96820.47;299395;222;63004;-56
2021/02/19 00:13:49;;;;;;;0.60;0.60;;;;;;;7.24;73.54;96822.13;299395;226;63004;-56
2021/02/19 00:18:50;;;;;;;0.60;0.60;;;;;;;7.19;74.13;96824.84;299396;234;63005;-55
2021/02/19 00:23:51;;;;;;;0.60;0.60;;;;;;;7.16;74.49;96838.87;299396;207;63008;-55
2021/02/19 00:28:52;;;;;;;0.60;0.60;;;;;;;7.12;75.26;96839.69;299396;263;63004;-56
2021/02/19 00:33:53;;;;;;;0.60;0.60;;;;;;;7.17;74.90;96854.00;299396;218;63009;-52
2021/02/19 00:38:54;;;;;;;0.60;0.60;;;;;;;7.13;75.08;96847.50;299395;282;64004;-55
2021/02/19 00:43:56;;;;;;;0.60;0.60;;;;;;;7.24;75.17;96841.03;299396;227;63009;-56
2021/02/19 00:48:57;;;;;;;0.50;0.50;;;;;;;7.38;74.65;96844.75;299396;198;63005;-55
2021/02/19 00:53:59;;;;;;;0.60;0.60;;;;;;;7.35;75.11;96845.31;299396;203;63009;-56
2021/02/19 00:59:00;;;;;;;0.50;0.50;;;;;;;7.17;75.77;96851.28;299396;203;63004;-56
2021/02/19 01:04:03;;;;;;;0.60;0.60;;;;;;;7.20;76.05;96858.84;299397;222;63009;-56
2021/02/19 01:09:05;;;;;;;0.60;0.60;;;;;;;7.17;76.14;96864.78;299397;292;63005;-56
2021/02/19 01:14:06;;;;;;;0.60;0.60;;;;;;;7.28;75.67;96871.75;299396;199;63009;-55
2021/02/19 01:19:07;;;;;;;0.60;0.60;;;;;;;7.12;75.99;96886.38;299396;305;63000;-56
2021/02/19 01:24:09;;;;;;;0.60;0.60;;;;;;;7.08;76.41;96909.56;299396;203;63009;-55
2021/02/19 01:29:11;;;;;;;0.60;0.60;;;;;;;7.25;76.87;96918.22;299396;229;63004;-56
2021/02/19 01:34:12;;;;;;;0.60;0.60;;;;;;;7.29;78.56;96916.56;299396;219;63009;-56
2021/02/19 01:39:13;;;;;;;0.60;0.60;;;;;;;7.08;80.94;96933.84;299396;210;63005;-57
2021/02/19 01:44:14;;;;;;;0.60;0.60;;;;;;;6.79;81.68;96965.09;299396;208;63009;-55
2021/02/19 01:49:16;;;;;;;0.60;0.60;;;;;;;6.61;80.54;96958.31;299396;214;63011;-55
2021/02/19 01:54:18;;;;;;;0.60;0.60;;;;;;;6.54;78.67;96963.97;299396;237;63009;-56
2021/02/19 01:59:21;;;;;;;0.60;0.60;;;;;;;6.29;78.86;96966.56;299397;218;63004;-55
2021/02/19 02:04:22;;;;;;;0.60;0.60;;;;;;;6.24;77.92;96985.41;299397;226;63009;-54
2021/02/19 02:09:23;;;;;;;0.60;0.60;;;;;;;5.99;79.13;96978.81;299395;212;63001;-56
2021/02/19 02:14:51;;;;;;;0.60;0.60;;;;;;;5.78;79.89;96963.59;299395;204;63009;-56
2021/02/19 02:20:54;;;;;;;0.60;0.60;;;;;;;5.76;78.56;96978.41;299395;273;63005;-55
2021/02/19 02:26:50;;;;;;;0.60;0.60;;;;;;;5.53;79.73;96984.97;299395;210;63009;-54
2021/02/19 02:32:12;;;;;;;0.70;0.70;;;;;;;5.67;78.01;96986.12;299395;207;63005;-54
2021/02/19 02:37:14;;;;;;;0.60;0.60;;;;;;;5.72;75.96;97002.34;299395;227;63009;-56
2021/02/19 02:42:18;;;;;;;0.60;0.60;;;;;;;5.66;75.99;97001.47;299395;203;63005;-54
2021/02/19 02:47:21;;;;;;;0.60;0.60;;;;;;;5.58;75.82;96991.19;299417;284;63009;-55
2021/02/19 02:52:28;;;;;;;0.70;0.70;;;;;;;5.36;77.35;97012.00;299395;226;63004;-55
2021/02/19 02:57:31;;;;;;;0.60;0.60;;;;;;;5.07;79.46;96997.22;299395;197;63009;-54
2021/02/19 03:02:35;;;;;;;0.60;0.60;;;;;;;4.92;79.66;97019.41;299395;222;63005;-55
2021/02/19 03:07:38;;;;;;;0.70;0.70;;;;;;;4.85;80.16;97021.50;299417;229;63008;-55
2021/02/19 03:12:41;;;;;;;0.60;0.60;;;;;;;4.82;79.36;97006.69;299417;215;63000;-55
2021/02/19 03:17:43;;;;;;;0.70;0.70;;;;;;;4.82;79.53;97005.87;299395;364;63009;-54
2021/02/19 03:22:47;;;;;;;0.60;0.60;;;;;;;4.77;79.32;97000.44;299395;236;63008;-56
2021/02/19 03:27:49;;;;;;;0.60;0.60;;;;;;;4.94;77.86;97006.50;299417;225;63009;-54
2021/02/19 03:33:00;;;;;;;0.60;0.60;;;;;;;4.99;76.85;96985.88;299373;197;63005;-55
2021/02/19 03:38:06;;;;;;;0.70;0.70;;;;;;;5.08;76.60;97010.44;299395;271;63008;-56
2021/02/19 03:43:10;;;;;;;0.62;0.62;;;;;;;5.24;75.33;97012.16;299395;205;63004;-55
2021/02/19 03:48:17;;;;;;;0.60;0.60;;;;;;;5.03;76.59;97013.87;299417;207;63009;-54
2021/02/19 03:53:24;;;;;;;0.60;0.60;;;;;;;5.02;76.39;97014.13;299395;216;63005;-55
2021/02/19 03:58:28;;;;;;;0.60;0.60;;;;;;;5.11;75.87;97014.50;299395;351;63009;-57
2021/02/19 04:03:30;;;;;;;0.60;0.60;;;;;;;5.01;76.69;97020.56;299417;233;63015;-56
2021/02/19 04:08:33;;;;;;;0.60;0.60;;;;;;;5.04;76.74;97036.19;299395;216;63009;-55
2021/02/19 04:13:36;;;;;;;0.68;0.68;;;;;;;5.12;76.34;97040.31;299395;295;63004;-54
2021/02/19 04:18:39;;;;;;;0.60;0.60;;;;;;;5.01;77.56;97047.47;299395;260;63017;-54
2021/02/19 04:23:41;;;;;;;0.60;0.60;;;;;;;4.91;78.62;97041.97;299395;207;63005;-55
2021/02/19 04:28:46;;;;;;;0.70;0.70;;;;;;;5.16;77.53;97039.56;299395;212;63009;-59
2021/02/19 04:33:51;;;;;;;0.62;0.62;;;;;;;5.04;77.62;97041.59;299395;228;63009;-54
2021/02/19 04:38:54;;;;;;;0.70;0.70;;;;;;;5.07;77.57;97046.47;299395;197;63009;-54
2021/02/19 04:44:03;;;;;;;0.60;0.60;;;;;;;4.98;77.64;97058.72;299395;228;63004;-54
2021/02/19 04:49:16;;;;;;;0.60;0.60;;;;;;;5.00;77.86;97061.97;299395;245;63009;-54
2021/02/19 04:54:18;;;;;;;0.60;0.60;;;;;;;4.88;79.19;97066.66;299395;275;63001;-54
2021/02/19 04:59:22;;;;;;;0.65;0.65;;;;;;;4.90;78.70;97069.94;299395;224;63009;-54
2021/02/19 05:04:26;;;;;;;0.65;0.65;;;;;;;4.93;78.03;97083.69;299377;199;125004;-55
2021/02/19 05:09:29;;;;;;;0.70;0.70;;;;;;;4.87;78.32;97086.56;299439;246;63009;-53
2021/02/19 05:14:30;;;;;;;0.68;0.68;;;;;;;4.89;78.36;97093.31;299439;214;63004;-54
2021/02/19 05:19:32;;;;;;;0.60;0.60;;;;;;;4.82;78.09;97099.97;299395;355;63009;-54
2021/02/19 05:24:35;;;;;;;0.70;0.70;;;;;;;4.90;78.52;97096.81;299395;292;63005;-54
2021/02/19 05:29:36;;;;;;;0.70;0.70;;;;;;;4.88;79.37;97104.31;299394;219;64008;-57
2021/02/19 05:34:40;;;;;;;0.60;0.60;;;;;;;4.88;80.25;97086.31;299395;199;63009;-56
2021/02/19 05:39:45;;;;;;;0.60;0.60;;;;;;;4.84;79.94;97093.28;299395;292;63009;-54
2021/02/19 05:44:57;;;;;;;;;;;;;;;4.79;80.70;97092.41;299996;982;6000;-55
2021/02/19 05:50:48;;;;;;;0.70;0.70;;;;;;;4.74;80.92;97090.47;299400;206;63004;-55
2021/02/19 05:55:58;;;;;;;0.60;0.60;;;;;;;4.69;81.56;97099.28;299395;321;63009;-56
2021/02/19 06:01:15;;;;;;;0.70;0.70;;;;;;;4.74;81.28;97095.03;299395;261;63005;-53
2021/02/19 06:06:38;;;;;;;0.60;0.60;;;;;;;4.68;81.99;97103.03;299395;265;63009;-55
2021/02/19 06:12:09;;;;;;;0.70;0.70;;;;;;;4.64;82.27;97104.59;299395;229;63004;-55
2021/02/19 06:17:51;;;;;;;0.70;0.70;;;;;;;4.51;82.47;97104.94;299395;301;63009;-55
2021/02/19 06:23:27;;;;;;;0.70;0.70;;;;;;;4.56;82.39;97094.25;299395;232;63005;-55
2021/02/19 06:28:37;;;;;;;0.60;0.60;;;;;;;4.56;82.48;97105.00;299439;386;63008;-54
2021/02/19 06:34:31;;;;;;;0.70;0.70;;;;;;;4.55;82.54;97124.06;299395;201;63004;-54
2021/02/19 06:40:03;;;;;;;0.70;0.70;;;;;;;4.55;82.49;97129.44;299395;221;63009;-55
2021/02/19 06:45:26;;;;;;;0.70;0.70;;;;;;;4.63;82.45;97131.69;299395;223;63005;-55
2021/02/19 06:51:15;;;;;;;0.60;0.60;;;;;;;4.62;82.14;97141.63;299395;234;63009;-54
2021/02/19 06:56:35;;;;;;;0.70;0.70;;;;;;;4.64;82.32;97150.28;299395;328;63004;-54
2021/02/19 07:02:29;;;;;;;0.65;0.65;;;;;;;4.69;82.11;97150.34;299395;292;63009;-55
2021/02/19 07:08:14;;;;;;;0.60;0.60;;;;;;;4.67;82.08;97160.53;299395;253;63018;-54
2021/02/19 07:13:27;;;;;;;0.70;0.70;;;;;;;4.67;82.38;97182.03;299395;354;63008;-55
2021/02/19 07:18:32;;;;;;;0.70;0.70;;;;;;;4.78;82.35;97190.25;299395;299;63004;-54
2021/02/19 07:23:41;;;;;;;0.70;0.70;;;;;;;4.74;82.88;97186.41;299395;339;63009;-55
2021/02/19 07:29:13;;;;;;;0.90;0.90;;;;;;;4.76;82.93;97197.75;299395;293;63004;-54
2021/02/19 07:34:31;;;;;;;0.70;0.70;;;;;;;4.69;83.20;97200.59;299395;243;63009;-55
2021/02/19 07:39:49;;;;;;;0.70;0.70;;;;;;;4.84;82.49;97218.81;299395;223;63005;-53
2021/02/19 07:45:18;;;;;;;0.60;0.60;;;;;;;4.88;83.31;97225.31;299395;206;63009;-55
2021/02/19 07:50:30;;;;;;;0.70;0.70;;;;;;;5.01;82.32;97228.47;299395;317;63004;-54
2021/02/19 07:55:36;;;;;;;0.70;0.70;;;;;;;4.95;83.54;97236.69;299395;332;63009;-54
2021/02/19 08:00:42;;;;;;;0.70;0.70;;;;;;;5.03;83.40;97230.91;299395;248;63005;-54
2021/02/19 08:05:45;;;;;;;0.68;0.68;;;;;;;5.14;83.55;97221.91;299395;202;63009;-55
2021/02/19 08:10:51;;;;;;;0.60;0.60;;;;;;;5.16;82.95;97216.28;299395;279;63004;-55
2021/02/19 08:15:54;;;;;;;0.60;0.60;;;;;;;5.25;83.69;97220.94;299395;215;63009;-55
2021/02/19 08:21:44;;;;;;;0.60;0.60;;;;;;;5.39;82.59;97226.78;299395;196;63004;-54
2021/02/19 08:27:05;;;;;;;0.60;0.60;;;;;;;5.46;82.01;97222.03;299395;243;63020;-56
2021/02/19 08:32:31;;;;;;;0.60;0.60;;;;;;;5.48;81.65;97235.22;299395;238;63005;-55
2021/02/19 08:37:53;;;;;;;0.65;0.65;;;;;;;5.49;81.91;97234.16;299417;278;63009;-56
2021/02/19 08:43:22;;;;;;;0.60;0.60;;;;;;;5.49;81.50;97243.06;299395;215;63004;-54
2021/02/19 08:48:36;;;;;;;0.70;0.70;;;;;;;5.47;81.56;97230.91;299395;196;63009;-54
2021/02/19 08:53:44;;;;;;;0.60;0.60;;;;;;;5.51;81.27;97235.53;299395;322;63005;-53
2021/02/19 08:58:54;;;;;;;0.60;0.60;;;;;;;5.64;80.31;97228.94;299395;215;63009;-55
2021/02/19 09:04:05;;;;;;;0.60;0.60;;;;;;;5.69;80.11;97216.34;299395;227;63004;-56
2021/02/19 09:09:08;;;;;;;0.60;0.60;;;;;;;5.88;80.15;97219.50;299395;266;63009;-52
2021/02/19 09:14:10;;;;;;;0.60;0.60;;;;;;;6.04;79.05;97223.97;299395;232;63005;-53
2021/02/19 09:19:16;;;;;;;0.60;0.60;;;;;;;6.23;78.53;97226.31;299395;249;63009;-53
2021/02/19 09:24:22;;;;;;;0.65;0.65;;;;;;;6.44;77.46;97211.09;299395;205;63005;-55
2021/02/19 09:29:29;;;;;;;0.60;0.60;;;;;;;6.72;76.28;97208.06;299395;204;63009;-52
2021/02/19 09:34:38;;;;;;;0.60;0.60;;;;;;;6.58;76.91;97223.91;299395;204;63004;-54
2021/02/19 09:39:41;;;;;;;0.60;0.60;;;;;;;6.62;76.76;97219.59;299395;238;63020;-54
2021/02/19 09:44:46;;;;;;;0.60;0.60;;;;;;;6.76;76.09;97224.53;299395;216;63005;-53
2021/02/19 09:49:50;;;;;;;0.60;0.60;;;;;;;6.93;76.01;97217.09;299417;280;63018;-53
2021/02/19 09:54:52;;;;;;;0.60;0.60;;;;;;;7.15;75.45;97217.75;299417;205;63004;-55
2021/02/19 09:59:54;;;;;;;0.60;0.60;;;;;;;7.46;74.51;97224.06;299395;197;63009;-55
2021/02/19 10:04:57;;;;;;;0.60;0.60;;;;;;;7.50;74.28;97219.78;299395;221;63004;-54
2021/02/19 10:10:02;;;;;;;0.60;0.60;;;;;;;7.57;74.43;97222.22;299395;237;63009;-53
2021/02/19 10:15:06;;;;;;;;;;;;;;;7.69;73.04;97220.09;299996;983;6000;-54
2021/02/19 10:20:31;;;;;;;0.60;0.60;;;;;;;7.70;74.17;97213.59;299400;204;63004;-58
2021/02/19 10:25:33;;;;;;;0.60;0.60;;;;;;;7.97;72.61;97214.19;299416;215;64009;-55
2021/02/19 10:30:38;;;;;;;0.60;0.60;;;;;;;8.28;70.28;97211.53;299373;203;63005;-57
2021/02/19 10:35:43;;;;;;;0.60;0.60;;;;;;;8.51;70.21;97219.13;299395;241;63008;-55
2021/02/19 10:40:54;;;;;;;0.60;0.60;;;;;;;8.62;69.03;97209.13;299395;341;63004;-63
2021/02/19 10:46:05;;;;;;;0.60;0.60;;;;;;;8.49;69.30;97217.78;299395;288;63009;-61
2021/02/19 10:51:10;;;;;;;0.60;0.60;;;;;;;8.20;70.18;97206.66;299395;218;63005;-62
2021/02/19 10:56:16;;;;;;;0.50;0.50;;;;;;;8.05;70.67;97200.16;299395;220;63009;-61
2021/02/19 11:01:19;;;;;;;0.60;0.60;;;;;;;8.12;71.01;97209.91;299395;210;63009;-59
2021/02/19 11:06:22;;;;;;;0.50;0.50;;;;;;;8.20;71.48;97201.25;299395;199;63009;-59
2021/02/19 11:11:30;;;;;;;0.60;0.60;;;;;;;8.59;70.30;97191.53;299395;223;63004;-56
2021/02/19 11:16:31;;;;;;;0.60;0.60;;;;;;;8.90;69.90;97195.00;299395;206;63009;-56
2021/02/19 11:21:40;;;;;;;0.50;0.50;;;;;;;9.09;68.32;97192.50;299395;235;63005;-60
2021/02/19 11:26:57;;;;;;;0.50;0.50;;;;;;;9.14;68.74;97187.06;299395;198;63019;-55
2021/02/19 11:32:12;;;;;;;0.60;0.60;;;;;;;9.19;69.86;97195.16;299395;199;63004;-59
2021/02/19 11:37:19;;;;;;;0.68;0.68;;;;;;;9.02;69.79;97178.44;299417;221;63009;-60
2021/02/19 11:42:47;;;;;;;0.60;0.60;;;;;;;8.96;70.01;97176.84;299395;225;63005;-61
2021/02/19 11:48:04;;;;;;;0.60;0.60;;;;;;;9.14;69.87;97165.41;299395;262;63004;-55
2021/02/19 11:53:14;;;;;;;0.60;0.60;;;;;;;9.23;69.50;97155.63;299395;262;63009;-56
2021/02/19 11:58:38;;;;;;;0.60;0.60;;;;;;;9.32;68.93;97158.56;299395;233;63005;-56
2021/02/19 12:03:52;;;;;;;0.60;0.60;;;;;;;9.35;68.54;97153.41;299395;295;63009;-57
2021/02/19 12:08:58;;;;;;;0.60;0.60;;;;;;;9.38;69.09;97158.25;299417;219;63005;-56
2021/02/19 12:14:01;;;;;;;0.60;0.60;;;;;;;9.42;69.64;97158.50;299395;237;63009;-57
2021/02/19 12:19:07;;;;;;;0.60;0.60;;;;;;;9.36;69.75;97163.13;299395;221;63004;-57
2021/02/19 12:24:15;;;;;;;0.60;0.60;;;;;;;9.41;69.58;97149.56;299395;256;63009;-57
2021/02/19 12:29:22;;;;;;;0.60;0.60;;;;;;;9.55;67.87;97148.97;299395;213;63005;-62
2021/02/19 12:34:34;;;;;;;0.60;0.60;;;;;;;9.61;68.91;97155.97;299395;211;63008;-59
2021/02/19 12:39:47;;;;;;;0.60;0.60;;;;;;;9.62;68.57;97142.16;299395;212;63004;-64
2021/02/19 12:44:50;;;;;;;0.60;0.60;;;;;;;9.68;66.84;97134.81;299395;230;63009;-58
2021/02/19 12:50:01;;;;;;;0.60;0.60;;;;;;;9.83;67.29;97129.28;299395;209;63005;-57
2021/02/19 12:55:31;;;;;;;0.60;0.60;;;;;;;9.84;67.21;97120.06;299396;257;63009;-58
2021/02/19 13:00:36;;;;;;;0.60;0.60;;;;;;;9.87;67.37;97127.63;299396;200;63005;-57
2021/02/19 13:05:44;;;;;;;0.60;0.60;;;;;;;10.03;65.95;97115.56;299396;216;63009;-55
2021/02/19 13:10:50;;;;;;;0.60;0.60;;;;;;;10.14;65.88;97107.34;299396;224;63004;-57
2021/02/19 13:15:53;;;;;;;0.60;0.60;;;;;;;10.21;66.01;97121.41;299396;313;63009;-56
2021/02/19 13:20:55;;;;;;;0.50;0.50;;;;;;;10.25;65.39;97117.84;299396;219;63005;-57
2021/02/19 13:25:58;;;;;;;0.50;0.50;;;;;;;10.18;65.87;97111.09;299396;227;63009;-57
2021/02/19 13:31:01;;;;;;;0.50;0.50;;;;;;;10.21;65.66;97099.72;299396;218;63005;-64
2021/02/19 13:36:03;;;;;;;0.60;0.60;;;;;;;10.22;66.54;97085.06;299396;220;63009;-56
2021/02/19 13:41:14;;;;;;;0.60;0.60;;;;;;;10.51;65.53;97088.56;299397;222;63004;-57
2021/02/19 13:46:46;;;;;;;0.50;0.50;;;;;;;10.63;65.05;97077.31;299396;196;63009;-56
2021/02/19 13:52:08;;;;;;;0.60;0.60;;;;;;;10.91;63.90;97081.06;299396;284;63005;-67
2021/02/19 13:57:11;;;;;;;0.60;0.60;;;;;;;10.96;62.80;97086.44;299396;216;63009;-70
2021/02/19 14:02:14;;;;;;;0.50;0.50;;;;;;;10.87;63.10;97088.97;299396;213;63004;-71
2021/02/19 14:07:37;;;;;;;0.50;0.50;;;;;;;10.75;62.78;97094.00;299396;212;63009;-67
2021/02/19 14:12:39;;;;;;;0.60;0.60;;;;;;;10.73;63.33;97088.87;299396;228;63005;-71
2021/02/19 14:17:41;;;;;;;0.60;0.60;;;;;;;10.54;64.89;97088.00;299396;257;63009;-56
2021/02/19 14:22:44;;;;;;;0.50;0.50;;;;;;;10.72;63.43;97084.56;299396;239;63012;-56
2021/02/19 14:27:51;;;;;;;0.50;0.50;;;;;;;10.56;64.50;97085.00;299396;210;63009;-57
2021/02/19 14:32:54;;;;;;;0.60;0.60;;;;;;;10.50;64.71;97097.81;299397;202;63004;-71
2021/02/19 14:37:59;;;;;;;0.50;0.50;;;;;;;10.39;64.92;97096.31;299397;199;63009;-70
2021/02/19 14:43:10;;;;;;;0.50;0.50;;;;;;;10.44;64.83;97087.28;299395;264;63005;-61
2021/02/19 14:48:19;;;;;;;0.60;0.60;;;;;;;10.53;64.07;97086.38;299395;258;63008;-57
2021/02/19 14:53:55;;;;;;;0.50;0.50;;;;;;;10.50;64.07;97081.53;299395;271;63004;-71
2021/02/19 14:58:58;;;;;;;0.60;0.60;;;;;;;10.50;64.43;97080.72;299395;246;63009;-72
2021/02/19 15:04:07;;;;;;;0.60;0.60;;;;;;;10.43;64.66;97081.03;299394;207;63005;-76
2021/02/19 15:09:09;;;;;;;0.50;0.50;;;;;;;10.45;64.75;97067.19;299395;236;63009;-68
2021/02/19 15:14:20;;;;;;;0.50;0.50;;;;;;;10.50;64.45;97073.38;299395;202;63005;-57
2021/02/19 15:19:26;;;;;;;0.60;0.60;;;;;;;10.52;64.76;97065.78;299395;215;63009;-55
2021/02/19 15:24:41;;;;;;;0.50;0.50;;;;;;;10.45;64.99;97056.34;299395;232;63004;-55
2021/02/19 15:29:46;;;;;;;0.57;0.57;;;;;;;10.44;65.04;97047.41;299417;202;63009;-53
2021/02/19 15:34:57;;;;;;;0.50;0.50;;;;;;;10.38;65.13;97056.72;299395;203;63005;-55
2021/02/19 15:40:07;;;;;;;0.60;0.60;;;;;;;10.42;65.21;97055.00;299395;276;63008;-57
2021/02/19 15:50:32;;;;;;;0.50;0.50;;;;;;;10.30;65.41;97049.19;299395;212;63004;-55
2021/02/19 15:55:56;;;;;;;0.60;0.60;;;;;;;10.17;66.13;97049.81;299395;232;63009;-56
2021/02/19 16:01:07;;;;;;;0.60;0.60;;;;;;;10.09;66.61;97045.81;299395;198;63004;-54
2021/02/19 16:06:09;;;;;;;0.50;0.50;;;;;;;10.02;66.48;97043.47;299395;242;63009;-55
2021/02/19 16:11:11;;;;;;;0.50;0.50;;;;;;;9.93;66.69;97052.50;299395;198;63005;-55
2021/02/19 16:16:25;;;;;;;0.50;0.50;;;;;;;9.79;67.53;97055.03;299395;211;63025;-56
2021/02/19 16:21:35;;;;;;;0.60;0.60;;;;;;;9.67;67.89;97052.72;299395;197;63005;-55
2021/02/19 16:26:36;;;;;;;0.50;0.50;;;;;;;9.57;68.12;97058.22;299395;251;63009;-59
2021/02/19 16:31:38;;;;;;;0.50;0.50;;;;;;;9.41;68.59;97045.84;299395;244;63004;-55
2021/02/19 16:36:43;;;;;;;0.60;0.60;;;;;;;9.20;69.18;97052.50;299395;240;63009;-57
2021/02/19 16:41:58;;;;;;;0.60;0.60;;;;;;;9.03;69.85;97047.44;299395;202;63005;-56
2021/02/19 16:47:10;;;;;;;0.60;0.60;;;;;;;8.89;70.34;97041.03;299417;261;63008;-57
2021/02/19 16:52:23;;;;;;;0.60;0.60;;;;;;;8.75;70.79;97048.91;299395;324;63004;-57
2021/02/19 16:57:26;;;;;;;0.60;0.60;;;;;;;8.62;71.53;97052.25;299395;319;63009;-58
2021/02/19 17:02:29;;;;;;;0.60;0.60;;;;;;;8.49;71.83;97047.41;299417;212;63004;-56
2021/02/19 17:07:46;;;;;;;0.60;0.60;;;;;;;8.33;72.71;97060.94;299395;223;63009;-59
2021/02/19 17:13:25;;;;;;;0.60;0.60;;;;;;;8.20;73.21;97049.88;299395;248;63011;-58
2021/02/19 17:18:34;;;;;;;0.50;0.50;;;;;;;8.23;73.32;97049.34;299395;204;63009;-58
2021/02/19 17:23:43;;;;;;;0.60;0.60;;;;;;;8.30;73.07;97052.56;299395;238;63004;-55
2021/02/19 17:28:46;;;;;;;0.60;0.60;;;;;;;8.38;73.10;97049.31;299395;292;63009;-60
2021/02/19 17:33:50;;;;;;;0.60;0.60;;;;;;;8.35;73.43;97055.28;299395;226;63005;-56
2021/02/19 17:38:51;;;;;;;0.60;0.60;;;;;;;8.34;73.55;97056.34;299439;203;63008;-55
2021/02/19 17:43:52;;;;;;;0.60;0.60;;;;;;;8.36;74.17;97062.31;299395;269;63004;-58
2021/02/19 17:48:53;;;;;;;0.60;0.60;;;;;;;8.29;74.39;97057.19;299395;275;63009;-55
2021/02/19 17:53:53;;;;;;;0.60;0.60;;;;;;;8.28;74.87;97052.84;299395;205;63004;-59
2021/02/19 17:58:55;;;;;;;0.60;0.60;;;;;;;8.30;75.02;97066.09;299395;293;63009;-57
2021/02/19 18:03:59;;;;;;;0.60;0.60;;;;;;;8.33;74.80;97060.16;299395;291;63005;-54
2021/02/19 18:09:00;;;;;;;0.60;0.60;;;;;;;8.30;75.11;97060.69;299417;223;63008;-54
2021/02/19 18:14:02;;;;;;;0.60;0.60;;;;;;;8.24;75.28;97064.47;299395;245;63004;-58
2021/02/19 18:19:04;;;;;;;0.60;0.60;;;;;;;8.19;75.56;97068.00;299395;244;63018;-58
2021/02/19 18:24:17;;;;;;;0.60;0.60;;;;;;;8.11;75.85;97068.53;299395;206;63004;-57
2021/02/19 18:29:18;;;;;;;0.50;0.50;;;;;;;8.16;75.89;97065.03;299395;294;63009;-57
2021/02/19 18:34:20;;;;;;;0.60;0.60;;;;;;;7.97;76.48;97062.09;299395;221;63005;-56
2021/02/19 18:39:21;;;;;;;0.60;0.60;;;;;;;7.93;76.36;97067.22;299395;240;63008;-55
2021/02/19 18:44:22;;;;;;;0.60;0.60;;;;;;;7.79;76.72;97066.16;299394;202;64004;-55
2021/02/19 18:49:23;;;;;;;0.60;0.60;;;;;;;7.77;77.00;97062.91;299395;216;63009;-54
2021/02/19 18:54:23;;;;;;;0.60;0.60;;;;;;;7.80;76.70;97056.97;299395;222;63005;-58
2021/02/19 18:59:28;;;;;;;0.60;0.60;;;;;;;7.67;76.95;97062.88;299395;247;63009;-54
2021/02/19 19:04:29;;;;;;;0.60;0.60;;;;;;;7.56;77.65;97056.69;299417;203;63005;-57
2021/02/19 19:09:30;;;;;;;0.60;0.60;;;;;;;7.63;76.92;97056.41;299395;226;63009;-61
2021/02/19 19:14:31;;;;;;;0.60;0.60;;;;;;;7.58;76.84;97059.13;299395;258;63004;-58
2021/02/19 19:19:32;;;;;;;0.60;0.60;;;;;;;7.50;77.28;97046.16;299395;227;63019;-57
2021/02/19 19:24:34;;;;;;;0.60;0.60;;;;;;;7.45;77.57;97040.75;299395;203;63005;-56
2021/02/19 19:29:36;;;;;;;0.60;0.60;;;;;;;7.44;77.57;97052.63;299395;199;63009;-57
2021/02/19 19:34:38;;;;;;;0.50;0.50;;;;;;;7.49;77.21;97039.13;299395;203;63005;-54
2021/02/19 19:39:42;;;;;;;0.60;0.60;;;;;;;7.48;77.24;97045.63;299395;239;63009;-65
2021/02/19 19:44:45;;;;;;;0.60;0.60;;;;;;;7.48;77.34;97053.72;299417;197;63004;-58
2021/02/19 19:49:46;;;;;;;0.60;0.60;;;;;;;7.39;77.36;97056.12;299373;242;63009;-55
2021/02/19 19:54:50;;;;;;;0.60;0.60;;;;;;;7.21;78.19;97053.97;299395;203;63005;-55
2021/02/19 19:59:51;;;;;;;0.60;0.60;;;;;;;7.24;77.84;97056.94;299417;220;63009;-54
2021/02/19 20:04:52;;;;;;;0.60;0.60;;;;;;;7.26;77.99;97052.09;299395;270;63010;-53
2021/02/19 20:09:53;;;;;;;0.60;0.60;;;;;;;7.36;78.01;97054.78;299395;211;63009;-54
2021/02/19 20:14:55;;;;;;;0.60;0.60;;;;;;;7.27;77.89;97061.81;299395;229;63004;-54
2021/02/19 20:19:56;;;;;;;0.60;0.60;;;;;;;7.24;78.34;97059.63;299395;251;63021;-53
2021/02/19 20:24:57;;;;;;;0.80;0.80;;;;;;;7.15;78.41;97066.63;299395;216;63001;-59
2021/02/19 20:29:59;;;;;;;0.60;0.60;;;;;;;7.12;78.67;97072.56;299395;203;63009;-53
2021/02/19 20:35:00;;;;;;;0.60;0.60;;;;;;;7.09;78.73;97067.69;299395;346;63005;-53
2021/02/19 20:40:01;;;;;;;0.60;0.60;;;;;;;7.12;79.21;97067.16;299395;225;63009;-53
2021/02/19 20:45:03;;;;;;;0.60;0.60;;;;;;;7.15;79.10;97071.22;299395;297;63004;-56
2021/02/19 20:50:07;;;;;;;0.60;0.60;;;;;;;7.29;78.73;97067.72;299395;212;63009;-60
2021/02/19 20:55:11;;;;;;;0.60;0.60;;;;;;;7.28;78.56;97065.28;299417;202;63005;-53
2021/02/19 21:00:18;;;;;;;0.60;0.60;;;;;;;7.30;78.37;97069.34;299395;225;63008;-56
2021/02/19 21:05:20;;;;;;;0.60;0.60;;;;;;;7.37;78.24;97075.28;299395;276;63004;-54
2021/02/19 21:10:22;;;;;;;0.60;0.60;;;;;;;7.47;77.97;97063.69;299395;198;63009;-54
2021/02/19 21:15:23;;;;;;;0.60;0.60;;;;;;;7.55;77.31;97065.06;299395;307;63004;-56
2021/02/19 21:20:24;;;;;;;0.60;0.60;;;;;;;7.45;77.83;97075.84;299395;227;63009;-53
2021/02/19 21:25:25;;;;;;;0.60;0.60;;;;;;;7.37;78.17;97086.09;299395;197;63005;-54
2021/02/19 21:30:26;;;;;;;0.60;0.60;;;;;;;7.44;78.00;97083.13;299395;368;63008;-54
2021/02/19 21:35:28;;;;;;;0.60;0.60;;;;;;;7.49;77.39;97082.34;299395;247;63004;-54
2021/02/19 21:40:29;;;;;;;0.60;0.60;;;;;;;7.61;77.11;97081.00;299395;310;63009;-54
2021/02/19 21:45:30;;;;;;;0.60;0.60;;;;;;;7.62;76.84;97081.81;299395;225;63004;-54
2021/02/19 21:50:31;;;;;;;0.60;0.60;;;;;;;7.60;77.11;97084.78;299395;213;63009;-60
2021/02/19 21:55:34;;;;;;;0.60;0.60;;;;;;;7.62;76.98;97087.22;299395;207;63005;-54
2021/02/19 22:00:35;;;;;;;0.60;0.60;;;;;;;7.57;77.12;97085.31;299395;211;63009;-54
2021/02/19 22:05:36;;;;;;;0.60;0.60;;;;;;;7.59;77.01;97087.75;299395;208;63004;-54
2021/02/19 22:10:37;;;;;;;0.60;0.60;;;;;;;7.67;76.75;97076.41;299395;224;63009;-53
2021/02/19 22:15:39;;;;;;;0.60;0.60;;;;;;;7.75;76.02;97070.47;299395;197;63005;-54
2021/02/19 22:20:41;;;;;;;0.60;0.60;;;;;;;7.83;75.62;97075.34;299395;202;63009;-57
2021/02/19 22:25:42;;;;;;;0.50;0.50;;;;;;;7.75;75.85;97078.56;299395;204;63005;-55
2021/02/19 22:30:43;;;;;;;0.60;0.60;;;;;;;7.74;76.12;97085.03;299395;240;63009;-53
2021/02/19 22:35:44;;;;;;;0.50;0.50;;;;;;;7.71;76.32;97091.00;299395;230;63004;-57
2021/02/19 22:40:45;;;;;;;0.60;0.60;;;;;;;7.64;76.39;97079.63;299395;197;63019;-54
2021/02/19 22:45:46;;;;;;;0.50;0.50;;;;;;;7.60;76.20;97092.06;299395;205;63005;-54
2021/02/19 22:50:47;;;;;;;0.60;0.60;;;;;;;7.50;76.69;97092.06;299395;237;63009;-55
2021/02/19 22:55:47;;;;;;;0.60;0.60;;;;;;;7.49;76.52;97090.44;299395;272;63005;-54
2021/02/19 23:00:50;;;;;;;0.60;0.60;;;;;;;7.35;77.16;97082.84;299395;225;63008;-54
2021/02/19 23:05:51;;;;;;;0.60;0.60;;;;;;;7.33;77.30;97078.78;299395;222;63004;-54
2021/02/19 23:10:52;;;;;;;0.60;0.60;;;;;;;7.29;77.03;97077.69;299395;280;63009;-54
2021/02/19 23:16:03;;;;;;;0.60;0.60;;;;;;;7.27;77.17;97080.69;299395;202;63005;-54
2021/02/19 23:21:05;;;;;;;0.60;0.60;;;;;;;7.22;77.38;97077.97;299395;196;63009;-54
2021/02/19 23:26:07;;;;;;;0.60;0.60;;;;;;;7.09;77.77;97081.16;299395;235;63011;-54
2021/02/19 23:31:08;;;;;;;0.60;0.60;;;;;;;7.07;78.02;97086.03;299395;311;63009;-54
2021/02/19 23:36:11;;;;;;;0.60;0.60;;;;;;;6.98;78.26;97085.72;299395;210;63004;-55
2021/02/19 23:41:12;;;;;;;0.60;0.60;;;;;;;6.92;78.39;97083.28;299395;218;63009;-54
2021/02/19 23:46:14;;;;;;;0.60;0.60;;;;;;;6.82;79.14;97092.16;299395;233;63005;-53
2021/02/19 23:51:15;;;;;;;0.60;0.60;;;;;;;6.82;78.86;97094.03;299395;225;63008;-55
2021/02/19 23:56:16;;;;;;;0.60;0.60;;;;;;;6.78;79.06;97090.25;299395;205;63004;-54
